createdAt,value
2019-05-17T00:01:07.365Z,10.50
2019-05-17T00:03:36.874Z,10.40
2019-05-17T00:06:06.708Z,10.30
2019-05-17T00:08:38.342Z,10.30
2019-05-17T00:11:06.986Z,10.30
2019-05-17T00:13:38.485Z,10.30
2019-05-17T00:16:07.302Z,10.20
2019-05-17T00:18:37.059Z,10.20
2019-05-17T00:21:07.711Z,10.20
2019-05-17T00:23:37.547Z,10.20
2019-05-17T00:26:07.275Z,10.20
2019-05-17T00:28:37.463Z,10.20
2019-05-17T00:31:06.770Z,10.10
2019-05-17T00:33:36.711Z,10.10
2019-05-17T00:36:06.951Z,10.10
2019-05-17T00:38:47.577Z,10.10
2019-05-17T00:41:07.178Z,10.10
2019-05-17T00:43:36.859Z,10.10
2019-05-17T00:46:06.668Z,10.00
2019-05-17T00:48:37.274Z,10.00
2019-05-17T00:51:09.856Z,10.00
2019-05-17T00:53:37.306Z,9.90
2019-05-17T00:56:06.744Z,9.90
2019-05-17T00:58:37.007Z,9.90
2019-05-17T01:01:08.228Z,9.90
2019-05-17T01:03:37.216Z,9.80
2019-05-17T01:06:06.469Z,9.90
2019-05-17T01:08:37.295Z,9.80
2019-05-17T01:11:07.135Z,9.80
2019-05-17T01:13:37.512Z,9.80
2019-05-17T01:16:07.369Z,9.70
2019-05-17T01:18:36.581Z,9.70
2019-05-17T01:21:06.558Z,9.70
2019-05-17T01:23:36.225Z,9.60
2019-05-17T01:26:07.550Z,9.60
2019-05-17T01:28:36.465Z,9.60
2019-05-17T01:31:06.657Z,9.60
2019-05-17T01:33:36.809Z,9.50
2019-05-17T01:36:06.799Z,9.50
2019-05-17T01:38:37.638Z,9.50
2019-05-17T01:41:07.175Z,9.50
2019-05-17T01:43:36.846Z,9.40
2019-05-17T01:46:06.680Z,9.40
2019-05-17T01:48:36.581Z,9.40
2019-05-17T01:51:07.558Z,9.30
2019-05-17T01:53:36.874Z,9.40
2019-05-17T01:56:06.341Z,9.40
2019-05-17T01:58:36.584Z,9.30
2019-05-17T02:01:07.612Z,9.30
2019-05-17T02:03:37.525Z,9.30
2019-05-17T02:06:07.594Z,9.30
2019-05-17T02:08:37.332Z,9.30
2019-05-17T02:11:06.946Z,9.30
2019-05-17T02:13:37.585Z,9.20
2019-05-17T02:16:07.399Z,9.30
2019-05-17T02:18:37.284Z,9.20
2019-05-17T02:21:06.757Z,9.30
2019-05-17T02:23:37.271Z,9.20
2019-05-17T02:26:06.754Z,9.20
2019-05-17T02:28:36.076Z,9.20
2019-05-17T02:31:05.312Z,9.20
2019-05-17T02:33:34.489Z,9.10
2019-05-17T02:36:03.618Z,9.10
2019-05-17T02:38:33.462Z,9.10
2019-05-17T02:41:03.465Z,9.10
2019-05-17T02:43:33.620Z,9.00
2019-05-17T02:46:04.031Z,9.00
2019-05-17T02:48:34.234Z,9.00
2019-05-17T02:51:03.979Z,8.90
2019-05-17T02:53:33.743Z,9.00
2019-05-17T02:56:03.317Z,8.90
2019-05-17T02:58:33.165Z,9.00
2019-05-17T03:01:03.737Z,8.90
2019-05-17T03:03:33.323Z,9.00
2019-05-17T03:06:03.290Z,8.90
2019-05-17T03:08:34.383Z,8.90
2019-05-17T03:11:03.970Z,8.90
2019-05-17T03:13:33.259Z,8.90
2019-05-17T03:16:03.390Z,8.90
2019-05-17T03:18:33.584Z,8.80
2019-05-17T03:21:04.022Z,8.90
2019-05-17T03:23:33.795Z,8.90
2019-05-17T03:26:03.800Z,8.80
2019-05-17T03:28:33.932Z,8.90
2019-05-17T03:31:08.119Z,8.80
2019-05-17T03:33:36.437Z,8.80
2019-05-17T03:36:07.376Z,8.80
2019-05-17T03:38:36.850Z,8.70
2019-05-17T03:41:17.015Z,8.70
2019-05-17T03:43:40.173Z,8.70
2019-05-17T03:46:07.415Z,8.70
2019-05-17T03:48:36.788Z,8.70
2019-05-17T03:51:05.943Z,8.70
2019-05-17T03:53:35.097Z,8.70
2019-05-17T03:56:04.340Z,8.70
2019-05-17T03:58:33.657Z,8.70
2019-05-17T04:01:04.268Z,8.70
2019-05-17T04:03:35.654Z,8.70
2019-05-17T04:06:04.365Z,8.70
2019-05-17T04:08:33.734Z,8.70
2019-05-17T04:11:20.809Z,8.70
2019-05-17T04:13:34.391Z,8.70
2019-05-17T04:16:08.656Z,8.70
2019-05-17T04:18:35.130Z,8.70
2019-05-17T04:21:04.218Z,8.70
2019-05-17T04:23:34.195Z,8.70
2019-05-17T04:26:04.217Z,8.70
2019-05-17T04:28:33.863Z,8.70
2019-05-17T04:31:03.305Z,8.70
2019-05-17T04:33:33.677Z,8.70
2019-05-17T04:36:03.090Z,8.70
2019-05-17T04:38:33.191Z,8.60
2019-05-17T04:41:03.336Z,8.70
2019-05-17T04:43:33.671Z,8.70
2019-05-17T04:46:03.184Z,8.70
2019-05-17T04:48:32.843Z,8.70
2019-05-17T04:51:02.667Z,8.70
2019-05-17T04:53:33.034Z,8.70
2019-05-17T04:56:03.288Z,8.80
2019-05-17T04:58:33.568Z,8.80
2019-05-17T05:01:03.973Z,8.80
2019-05-17T05:03:33.631Z,8.90
2019-05-17T05:06:03.349Z,8.90
2019-05-17T05:08:33.221Z,8.90
2019-05-17T05:11:03.994Z,9.00
2019-05-17T05:13:33.685Z,9.00
2019-05-17T05:16:03.307Z,9.00
2019-05-17T05:18:32.951Z,9.10
2019-05-17T05:21:03.468Z,9.10
2019-05-17T05:23:32.890Z,9.20
2019-05-17T05:26:03.082Z,9.10
2019-05-17T05:28:32.489Z,9.20
2019-05-17T05:31:03.065Z,9.20
2019-05-17T05:33:33.317Z,9.30
2019-05-17T05:36:02.483Z,9.30
2019-05-17T05:38:32.025Z,9.40
2019-05-17T05:41:01.867Z,9.40
2019-05-17T05:43:32.738Z,9.40
2019-05-17T05:46:02.662Z,9.50
2019-05-17T05:48:32.764Z,9.60
2019-05-17T05:51:04.262Z,9.60
2019-05-17T05:53:32.872Z,9.60
2019-05-17T05:56:03.344Z,9.60
2019-05-17T05:58:32.854Z,9.60
2019-05-17T06:01:02.482Z,9.70
2019-05-17T06:03:32.193Z,9.80
2019-05-17T06:06:01.852Z,9.80
2019-05-17T06:08:32.285Z,9.90
2019-05-17T06:11:02.291Z,9.80
2019-05-17T06:13:32.615Z,9.90
2019-05-17T06:16:02.683Z,9.90
2019-05-17T06:18:32.184Z,9.90
2019-05-17T06:21:02.997Z,10.00
2019-05-17T06:23:32.052Z,10.00
2019-05-17T06:26:04.170Z,10.10
2019-05-17T06:28:32.070Z,10.20
2019-05-17T06:31:02.919Z,10.20
2019-05-17T06:33:34.817Z,10.20
2019-05-17T06:36:02.912Z,10.20
2019-05-17T06:38:32.859Z,10.30
2019-05-17T06:41:02.143Z,10.30
2019-05-17T06:43:32.240Z,10.40
2019-05-17T06:46:01.993Z,10.40
2019-05-17T06:48:31.873Z,10.50
2019-05-17T06:51:02.653Z,10.50
2019-05-17T06:53:32.399Z,10.60
2019-05-17T06:56:02.710Z,10.60
2019-05-17T06:58:32.151Z,10.60
2019-05-17T07:01:01.239Z,10.70
2019-05-17T07:03:30.344Z,10.70
2019-05-17T07:06:01.108Z,10.70
2019-05-17T07:08:30.162Z,10.70
2019-05-17T07:10:59.760Z,10.80
2019-05-17T07:13:30.080Z,10.80
2019-05-17T07:15:59.800Z,10.80
2019-05-17T07:18:30.048Z,10.90
2019-05-17T07:21:02.839Z,10.90
2019-05-17T07:23:30.399Z,11.00
2019-05-17T07:25:59.750Z,11.00
2019-05-17T07:28:30.189Z,11.10
2019-05-17T07:30:59.713Z,11.10
2019-05-17T07:33:30.598Z,11.20
2019-05-17T07:35:59.729Z,11.20
2019-05-17T07:38:30.277Z,11.20
2019-05-17T07:40:59.702Z,11.20
2019-05-17T07:43:30.925Z,11.30
2019-05-17T07:46:02.492Z,11.40
2019-05-17T07:48:31.651Z,11.30
2019-05-17T07:51:00.716Z,11.40
2019-05-17T07:53:30.683Z,11.50
2019-05-17T07:56:00.021Z,11.50
2019-05-17T07:58:29.954Z,11.50
2019-05-17T08:01:02.109Z,11.50
2019-05-17T08:03:31.494Z,11.60
2019-05-17T08:06:00.588Z,11.60
2019-05-17T08:08:31.004Z,11.70
2019-05-17T08:11:00.641Z,11.80
2019-05-17T08:13:31.278Z,11.80
2019-05-17T08:16:00.625Z,11.80
2019-05-17T08:18:29.751Z,11.80
2019-05-17T08:20:59.680Z,11.90
2019-05-17T08:23:30.458Z,11.90
2019-05-17T08:26:00.568Z,11.90
2019-05-17T08:28:31.299Z,11.90
2019-05-17T08:31:01.286Z,12.00
2019-05-17T08:33:30.866Z,12.00
2019-05-17T08:36:00.079Z,12.00
2019-05-17T08:38:30.590Z,12.10
2019-05-17T08:41:00.572Z,12.20
2019-05-17T08:43:39.440Z,12.20
2019-05-17T08:46:02.338Z,12.30
2019-05-17T08:48:31.508Z,12.20
2019-05-17T08:51:00.588Z,12.30
2019-05-17T08:53:30.502Z,12.40
2019-05-17T08:56:01.018Z,12.50
2019-05-17T08:58:30.862Z,12.60
2019-05-17T09:01:00.395Z,12.50
2019-05-17T09:03:30.313Z,12.60
2019-05-17T09:06:02.230Z,12.50
2019-05-17T09:08:30.445Z,12.50
2019-05-17T09:11:00.349Z,12.50
2019-05-17T09:13:29.960Z,12.60
2019-05-17T09:16:00.365Z,12.70
2019-05-17T09:18:30.211Z,12.80
2019-05-17T09:21:00.343Z,12.80
2019-05-17T09:23:30.456Z,12.90
2019-05-17T09:25:59.792Z,12.90
2019-05-17T09:28:29.977Z,12.90
2019-05-17T09:30:59.881Z,13.00
2019-05-17T09:33:30.096Z,13.00
2019-05-17T09:36:00.934Z,13.00
2019-05-17T09:38:30.226Z,13.10
2019-05-17T09:41:00.026Z,13.10
2019-05-17T09:43:29.676Z,13.20
2019-05-17T09:46:01.528Z,13.30
2019-05-17T09:48:30.686Z,13.30
2019-05-17T09:51:00.229Z,13.30
2019-05-17T09:53:30.772Z,13.40
2019-05-17T09:56:00.496Z,13.50
2019-05-17T09:58:30.027Z,13.60
2019-05-17T10:01:01.455Z,13.70
2019-05-17T10:03:30.692Z,13.80
2019-05-17T10:06:00.240Z,13.70
2019-05-17T10:08:29.401Z,13.80
2019-05-17T10:11:06.000Z,13.80
2019-05-17T10:13:29.044Z,13.80
2019-05-17T10:16:00.323Z,14.00
2019-05-17T10:18:29.595Z,14.00
2019-05-17T10:20:59.839Z,14.10
2019-05-17T10:23:29.922Z,14.10
2019-05-17T10:25:59.548Z,14.10
2019-05-17T10:28:28.742Z,14.20
2019-05-17T10:31:02.051Z,14.20
2019-05-17T10:33:29.449Z,14.20
2019-05-17T10:36:00.456Z,14.30
2019-05-17T10:38:29.995Z,14.30
2019-05-17T10:40:59.154Z,14.30
2019-05-17T10:43:29.892Z,14.40
2019-05-17T10:45:59.829Z,14.50
2019-05-17T10:48:30.090Z,14.50
2019-05-17T10:51:00.294Z,14.50
2019-05-17T10:53:29.880Z,14.60
2019-05-17T10:56:00.706Z,14.60
2019-05-17T10:58:29.986Z,14.70
2019-05-17T11:01:00.751Z,14.80
2019-05-17T11:03:29.776Z,14.80
2019-05-17T11:05:59.990Z,14.80
2019-05-17T11:08:29.047Z,15.00
2019-05-17T11:10:59.591Z,15.00
2019-05-17T11:13:28.885Z,15.20
2019-05-17T11:15:57.868Z,15.20
2019-05-17T11:18:26.874Z,15.40
2019-05-17T11:20:55.966Z,15.40
2019-05-17T11:23:24.963Z,15.40
2019-05-17T11:25:54.121Z,15.30
2019-05-17T11:28:23.267Z,15.40
2019-05-17T11:30:52.394Z,15.40
2019-05-17T11:33:21.413Z,15.40
2019-05-17T11:35:50.465Z,15.40
2019-05-17T11:38:19.479Z,15.40
2019-05-17T11:40:50.008Z,15.40
2019-05-17T11:43:19.275Z,15.40
2019-05-17T11:45:48.347Z,15.40
2019-05-17T11:48:17.431Z,15.60
2019-05-17T11:50:46.517Z,15.60
2019-05-17T11:53:15.530Z,15.70
2019-05-17T11:55:44.594Z,15.60
2019-05-17T11:58:13.591Z,15.80
2019-05-17T12:00:42.755Z,16.00
2019-05-17T12:03:11.897Z,15.90
2019-05-17T12:05:40.966Z,16.00
2019-05-17T12:08:09.985Z,16.30
2019-05-17T12:10:39.040Z,16.30
2019-05-17T12:13:08.124Z,16.30
2019-05-17T12:15:45.162Z,16.10
2019-05-17T12:18:07.914Z,16.20
2019-05-17T12:20:36.994Z,16.60
2019-05-17T12:23:06.026Z,16.80
2019-05-17T12:25:35.086Z,16.90
2019-05-17T12:28:04.164Z,17.00
2019-05-17T12:30:33.299Z,16.90
2019-05-17T12:33:02.354Z,17.10
2019-05-17T12:35:31.511Z,17.10
2019-05-17T12:38:00.575Z,17.00
2019-05-17T12:40:29.615Z,17.30
2019-05-17T12:42:58.524Z,17.30
2019-05-17T12:45:27.614Z,17.50
2019-05-17T12:47:56.629Z,17.70
2019-05-17T12:50:25.735Z,17.70
2019-05-17T12:52:54.658Z,17.60
2019-05-17T12:55:23.732Z,17.60
2019-05-17T12:57:52.715Z,17.50
2019-05-17T13:00:22.161Z,17.70
2019-05-17T13:02:51.132Z,17.80
2019-05-17T13:05:20.179Z,17.80
2019-05-17T13:07:49.173Z,18.10
2019-05-17T13:10:18.394Z,17.90
2019-05-17T13:12:47.462Z,17.80
2019-05-17T13:15:17.274Z,17.90
2019-05-17T13:17:46.398Z,18.10
2019-05-17T13:20:15.863Z,18.00
2019-05-17T13:22:44.852Z,18.10
2019-05-17T13:25:14.194Z,18.30
2019-05-17T13:27:43.289Z,18.50
2019-05-17T13:30:12.707Z,18.80
2019-05-17T13:32:41.908Z,18.90
2019-05-17T13:35:11.185Z,19.00
2019-05-17T13:37:40.201Z,19.00
2019-05-17T13:40:09.784Z,19.00
2019-05-17T13:42:38.772Z,19.30
2019-05-17T13:45:09.043Z,19.30
2019-05-17T13:47:38.024Z,19.50
2019-05-17T13:50:07.583Z,19.60
2019-05-17T13:52:36.646Z,19.60
2019-05-17T13:55:06.043Z,19.60
2019-05-17T13:57:34.986Z,19.80
2019-05-17T14:00:04.627Z,20.10
2019-05-17T14:02:33.879Z,20.20
2019-05-17T14:05:02.951Z,20.20
2019-05-17T14:07:31.939Z,20.00
2019-05-17T14:10:00.871Z,20.20
2019-05-17T14:12:29.933Z,20.60
2019-05-17T14:14:58.923Z,20.80
2019-05-17T14:17:28.002Z,20.80
2019-05-17T14:19:57.080Z,20.90
2019-05-17T14:22:26.244Z,21.30
2019-05-17T14:24:55.330Z,21.50
2019-05-17T14:27:24.438Z,21.40
2019-05-17T14:29:53.479Z,21.50
2019-05-17T14:32:22.455Z,21.50
2019-05-17T14:34:51.439Z,21.60
2019-05-17T14:37:20.448Z,21.70
2019-05-17T14:39:49.520Z,21.60
2019-05-17T14:42:18.583Z,21.50
2019-05-17T14:44:47.662Z,21.40
2019-05-17T14:47:16.640Z,21.50
2019-05-17T14:49:45.576Z,21.70
2019-05-17T14:52:14.692Z,21.80
2019-05-17T14:54:43.730Z,21.90
2019-05-17T14:57:12.754Z,21.80
2019-05-17T14:59:41.815Z,21.50
2019-05-17T15:02:10.965Z,21.20
2019-05-17T15:04:40.052Z,21.20
2019-05-17T15:07:11.257Z,21.10
2019-05-17T15:09:39.787Z,21.20
2019-05-17T15:12:08.864Z,21.30
2019-05-17T15:14:37.948Z,21.30
2019-05-17T15:17:07.022Z,21.60
2019-05-17T15:19:36.094Z,21.80
2019-05-17T15:22:05.280Z,21.60
2019-05-17T15:24:34.349Z,21.60
2019-05-17T15:27:05.773Z,21.30
2019-05-17T15:29:34.151Z,21.10
2019-05-17T15:32:03.241Z,21.10
2019-05-17T15:34:32.386Z,21.20
2019-05-17T15:37:01.534Z,21.30
2019-05-17T15:39:30.626Z,21.00
2019-05-17T15:41:59.703Z,20.80
2019-05-17T15:44:28.801Z,20.60
2019-05-17T15:46:57.921Z,20.50
2019-05-17T15:49:26.905Z,20.40
2019-05-17T15:51:56.131Z,20.30
2019-05-17T15:54:25.035Z,20.30
2019-05-17T15:56:54.110Z,20.20
2019-05-17T15:59:23.278Z,20.10
2019-05-17T16:01:52.275Z,20.00
2019-05-17T16:04:21.422Z,19.80
2019-05-17T16:06:50.629Z,19.60
2019-05-17T16:09:19.668Z,19.50
2019-05-17T16:11:48.799Z,19.40
2019-05-17T16:14:17.795Z,19.30
2019-05-17T16:16:46.905Z,19.30
2019-05-17T16:19:15.887Z,19.50
2019-05-17T16:21:44.941Z,19.70
2019-05-17T16:24:13.847Z,19.90
2019-05-17T16:26:42.902Z,20.10
2019-05-17T16:29:12.076Z,20.10
2019-05-17T16:31:41.137Z,20.00
2019-05-17T16:34:10.298Z,19.90
2019-05-17T16:36:39.367Z,19.90
2019-05-17T16:39:08.676Z,20.00
2019-05-17T16:41:37.819Z,20.10
2019-05-17T16:44:07.015Z,20.30
2019-05-17T16:46:36.110Z,20.40
2019-05-17T16:49:05.239Z,20.60
2019-05-17T16:51:34.372Z,20.70
2019-05-17T16:54:03.446Z,20.60
2019-05-17T16:56:32.502Z,20.50
2019-05-17T16:59:01.678Z,20.40
2019-05-17T17:01:30.595Z,20.20
2019-05-17T17:03:59.651Z,20.10
2019-05-17T17:06:28.819Z,20.10
2019-05-17T17:08:58.012Z,20.10
2019-05-17T17:11:27.107Z,20.20
2019-05-17T17:13:56.119Z,20.10
2019-05-17T17:16:25.275Z,20.00
2019-05-17T17:18:54.484Z,19.90
2019-05-17T17:21:23.552Z,19.70
2019-05-17T17:23:52.570Z,19.50
2019-05-17T17:26:21.635Z,19.40
2019-05-17T17:28:50.745Z,19.30
2019-05-17T17:31:19.800Z,19.20
2019-05-17T17:33:48.949Z,19.10
2019-05-17T17:36:19.547Z,19.00
2019-05-17T17:38:48.618Z,18.90
2019-05-17T17:41:17.766Z,18.80
2019-05-17T17:43:58.154Z,18.70
2019-05-17T17:46:17.729Z,18.60
2019-05-17T17:48:46.729Z,18.60
2019-05-17T17:51:15.876Z,18.40
2019-05-17T17:53:44.939Z,18.40
2019-05-17T17:56:14.018Z,18.20
2019-05-17T17:58:43.172Z,18.20
2019-05-17T18:01:12.234Z,18.20
2019-05-17T18:03:41.246Z,18.00
2019-05-17T18:06:10.375Z,18.00
2019-05-17T18:08:39.445Z,17.90
2019-05-17T18:11:08.605Z,17.80
2019-05-17T18:13:37.660Z,17.80
2019-05-17T18:16:06.785Z,17.70
2019-05-17T18:18:35.841Z,17.70
2019-05-17T18:21:04.909Z,17.60
2019-05-17T18:23:33.975Z,17.50
2019-05-17T18:26:03.062Z,17.50
2019-05-17T18:28:32.200Z,17.50
2019-05-17T18:31:01.340Z,17.40
2019-05-17T18:33:30.514Z,17.30
2019-05-17T18:35:59.586Z,17.30
2019-05-17T18:38:31.375Z,17.30
2019-05-17T18:41:00.463Z,17.20
2019-05-17T18:43:29.632Z,17.20
2019-05-17T18:45:58.826Z,17.10
2019-05-17T18:48:27.998Z,17.10
2019-05-17T18:50:57.070Z,17.00
2019-05-17T18:53:26.126Z,17.00
2019-05-17T18:55:55.211Z,16.90
2019-05-17T18:58:24.272Z,16.90
2019-05-17T19:00:53.270Z,16.80
2019-05-17T19:03:22.452Z,16.80
2019-05-17T19:05:51.583Z,16.80
2019-05-17T19:08:20.507Z,16.70
2019-05-17T19:10:49.579Z,16.70
2019-05-17T19:13:18.652Z,16.60
2019-05-17T19:15:47.732Z,16.60
2019-05-17T19:18:16.757Z,16.60
2019-05-17T19:20:45.963Z,16.50
2019-05-17T19:23:15.138Z,16.60
2019-05-17T19:25:44.288Z,16.50
2019-05-17T19:28:13.373Z,16.50
2019-05-17T19:30:42.455Z,16.50
2019-05-17T19:33:11.389Z,16.40
2019-05-17T19:35:40.527Z,16.40
2019-05-17T19:38:09.569Z,16.30
2019-05-17T19:40:38.656Z,16.30
2019-05-17T19:43:07.793Z,16.20
2019-05-17T19:45:36.886Z,16.20
2019-05-17T19:48:05.956Z,16.10
2019-05-17T19:50:35.108Z,16.10
2019-05-17T19:53:04.321Z,16.10
2019-05-17T19:55:33.536Z,16.10
2019-05-17T19:58:02.697Z,16.10
2019-05-17T20:00:31.765Z,16.00
2019-05-17T20:03:00.694Z,16.00
2019-05-17T20:05:29.781Z,16.00
2019-05-17T20:07:58.856Z,16.00
2019-05-17T20:10:28.050Z,15.90
2019-05-17T20:12:57.084Z,15.90
2019-05-17T20:15:34.187Z,15.80
2019-05-17T20:17:56.868Z,15.80
2019-05-17T20:20:25.880Z,15.80
2019-05-17T20:22:54.907Z,15.80
2019-05-17T20:25:24.066Z,15.80
2019-05-17T20:27:52.981Z,15.70
2019-05-17T20:30:22.099Z,15.70
2019-05-17T20:32:51.155Z,15.70
2019-05-17T20:35:20.222Z,15.60
2019-05-17T20:37:49.202Z,15.60
2019-05-17T20:40:18.586Z,15.60
2019-05-17T20:42:47.651Z,15.50
2019-05-17T20:45:30.559Z,15.50
2019-05-17T20:47:47.448Z,15.50
2019-05-17T20:50:16.822Z,15.50
2019-05-17T20:52:46.287Z,15.50
2019-05-17T20:55:15.601Z,15.40
2019-05-17T20:57:44.707Z,15.40
2019-05-17T21:00:14.747Z,15.30
2019-05-17T21:02:43.780Z,15.30
2019-05-17T21:05:17.067Z,15.30
2019-05-17T21:07:46.243Z,15.20
2019-05-17T21:10:15.610Z,15.20
2019-05-17T21:12:44.732Z,15.10
2019-05-17T21:15:13.950Z,15.10
2019-05-17T21:17:43.055Z,15.10
2019-05-17T21:20:12.715Z,15.00
2019-05-17T21:22:41.737Z,15.00
2019-05-17T21:25:11.233Z,15.00
2019-05-17T21:27:40.357Z,14.90
2019-05-17T21:30:09.636Z,14.90
2019-05-17T21:32:38.585Z,14.90
2019-05-17T21:35:08.530Z,14.90
2019-05-17T21:37:37.680Z,14.90
2019-05-17T21:40:07.122Z,14.80
2019-05-17T21:42:36.288Z,14.80
2019-05-17T21:45:05.897Z,14.80
2019-05-17T21:47:35.079Z,14.70
2019-05-17T21:50:04.606Z,14.80
2019-05-17T21:52:33.695Z,14.70
2019-05-17T21:55:02.840Z,14.70
2019-05-17T21:57:31.904Z,14.70
2019-05-17T22:00:01.058Z,14.60
2019-05-17T22:02:30.246Z,14.60
2019-05-17T22:04:59.399Z,14.60
2019-05-17T22:07:28.471Z,14.60
2019-05-17T22:09:57.611Z,14.50
2019-05-17T22:12:26.645Z,14.60
2019-05-17T22:14:55.588Z,14.50
2019-05-17T22:17:24.538Z,14.60
2019-05-17T22:19:53.682Z,14.50
2019-05-17T22:22:22.700Z,14.40
2019-05-17T22:24:51.706Z,14.40
2019-05-17T22:27:20.805Z,14.40
2019-05-17T22:29:49.734Z,14.30
2019-05-17T22:32:18.833Z,14.30
2019-05-17T22:34:47.905Z,14.30
2019-05-17T22:37:17.691Z,14.30
2019-05-17T22:39:47.077Z,14.20
2019-05-17T22:42:16.140Z,14.20
2019-05-17T22:44:45.297Z,14.20
2019-05-17T22:47:14.410Z,14.10
2019-05-17T22:49:43.419Z,14.10
2019-05-17T22:52:12.408Z,14.00
2019-05-17T22:54:41.588Z,14.00
2019-05-17T22:57:10.641Z,13.90
2019-05-17T22:59:39.836Z,13.90
2019-05-17T23:02:08.889Z,13.80
2019-05-17T23:04:37.972Z,13.70
2019-05-17T23:07:07.179Z,13.70
2019-05-17T23:09:36.264Z,13.70
2019-05-17T23:12:08.810Z,13.60
2019-05-17T23:14:37.304Z,13.60
2019-05-17T23:17:06.463Z,13.70
2019-05-17T23:19:35.487Z,13.60
2019-05-17T23:22:06.583Z,13.50
2019-05-17T23:24:35.642Z,13.60
2019-05-17T23:27:23.870Z,13.60
2019-05-17T23:29:52.853Z,13.50
2019-05-17T23:32:22.047Z,13.50
2019-05-17T23:34:51.197Z,13.50
2019-05-17T23:37:20.351Z,13.50
2019-05-17T23:39:49.496Z,13.50
2019-05-17T23:42:18.570Z,13.40
2019-05-17T23:44:59.564Z,13.40
2019-05-17T23:47:28.614Z,13.30
2019-05-17T23:49:57.674Z,13.30
2019-05-17T23:52:26.824Z,13.40
2019-05-17T23:54:55.979Z,13.30
2019-05-17T23:57:25.364Z,13.20
2019-05-17T23:59:54.563Z,13.20
